createdAt,value
2018-09-05T00:00:26.021Z,15.10
2018-09-05T00:02:57.389Z,15.10
2018-09-05T00:05:29.343Z,15.10
2018-09-05T00:08:01.680Z,15.10
2018-09-05T00:10:33.447Z,15.20
2018-09-05T00:13:05.301Z,15.20
2018-09-05T00:15:37.100Z,15.20
2018-09-05T00:18:08.381Z,15.30
2018-09-05T00:20:41.941Z,15.30
2018-09-05T00:23:13.413Z,15.30
2018-09-05T00:25:45.551Z,15.20
2018-09-05T00:28:18.012Z,15.10
2018-09-05T00:30:49.317Z,15.00
2018-09-05T00:33:21.240Z,14.90
2018-09-05T00:35:53.462Z,14.90
2018-09-05T00:38:24.589Z,14.80
2018-09-05T00:40:55.418Z,14.80
2018-09-05T00:43:26.216Z,14.80
2018-09-05T00:45:56.809Z,14.80
2018-09-05T00:48:29.061Z,14.80
2018-09-05T00:51:01.244Z,14.80
2018-09-05T00:53:33.077Z,14.70
2018-09-05T00:56:05.558Z,14.70
2018-09-05T00:58:37.648Z,14.70
2018-09-05T01:01:08.268Z,14.70
2018-09-05T01:03:38.953Z,14.70
2018-09-05T01:06:10.896Z,14.60
2018-09-05T01:08:42.242Z,14.60
2018-09-05T01:11:13.492Z,14.50
2018-09-05T01:13:43.962Z,14.50
2018-09-05T01:16:16.513Z,14.50
2018-09-05T01:18:47.136Z,14.40
2018-09-05T01:21:18.349Z,14.40
2018-09-05T01:23:49.184Z,14.40
2018-09-05T01:26:20.060Z,14.40
2018-09-05T01:28:50.813Z,14.30
2018-09-05T01:31:22.398Z,14.30
2018-09-05T01:33:54.030Z,14.20
2018-09-05T01:36:27.232Z,14.10
2018-09-05T01:39:01.085Z,14.00
2018-09-05T01:41:32.949Z,14.00
2018-09-05T01:44:04.455Z,13.90
2018-09-05T01:46:36.821Z,13.90
2018-09-05T01:49:08.145Z,13.90
2018-09-05T01:51:40.372Z,14.00
2018-09-05T01:54:12.274Z,14.00
2018-09-05T01:56:44.209Z,14.00
2018-09-05T01:59:15.989Z,13.90
2018-09-05T02:01:47.239Z,13.90
2018-09-05T02:04:19.666Z,13.80
2018-09-05T02:06:50.713Z,13.80
2018-09-05T02:09:22.940Z,13.80
2018-09-05T02:11:54.522Z,13.80
2018-09-05T02:14:25.885Z,13.80
2018-09-05T02:16:56.723Z,13.80
2018-09-05T02:19:28.416Z,13.80
2018-09-05T02:22:03.475Z,13.90
2018-09-05T02:24:35.822Z,13.90
2018-09-05T02:27:08.873Z,13.90
2018-09-05T02:29:39.953Z,14.00
2018-09-05T02:32:10.593Z,14.00
2018-09-05T02:34:41.505Z,14.00
2018-09-05T02:37:14.142Z,14.00
2018-09-05T02:39:45.454Z,13.90
2018-09-05T02:42:16.861Z,13.90
2018-09-05T02:44:47.918Z,13.90
2018-09-05T02:47:18.879Z,13.90
2018-09-05T02:49:50.615Z,13.80
2018-09-05T02:52:22.002Z,13.70
2018-09-05T02:54:54.141Z,13.60
2018-09-05T02:57:25.143Z,13.60
2018-09-05T02:59:58.269Z,13.50
2018-09-05T03:02:29.967Z,13.50
2018-09-05T03:05:01.892Z,13.40
2018-09-05T03:07:33.275Z,13.30
2018-09-05T03:10:05.463Z,13.40
2018-09-05T03:12:36.781Z,13.30
2018-09-05T03:15:08.394Z,13.30
2018-09-05T03:17:39.952Z,13.30
2018-09-05T03:20:13.327Z,13.20
2018-09-05T03:22:44.282Z,13.20
2018-09-05T03:25:16.935Z,13.20
2018-09-05T03:27:53.093Z,13.30
2018-09-05T03:30:23.871Z,13.30
2018-09-05T03:32:56.606Z,13.30
2018-09-05T03:35:28.137Z,13.30
2018-09-05T03:37:59.350Z,13.20
2018-09-05T03:40:30.766Z,13.30
2018-09-05T03:43:02.744Z,13.30
2018-09-05T03:45:35.532Z,13.30
2018-09-05T03:48:06.721Z,13.30
2018-09-05T03:50:38.627Z,13.20
2018-09-05T03:53:10.734Z,13.30
2018-09-05T03:55:42.024Z,13.30
2018-09-05T03:58:13.474Z,13.20
2018-09-05T04:00:45.925Z,13.20
2018-09-05T04:03:18.471Z,13.20
2018-09-05T04:05:50.387Z,13.20
2018-09-05T04:08:22.489Z,13.20
2018-09-05T04:10:54.050Z,13.20
2018-09-05T04:13:25.470Z,13.20
2018-09-05T04:15:57.422Z,13.20
2018-09-05T04:18:29.593Z,13.20
2018-09-05T04:21:01.144Z,13.20
2018-09-05T04:23:38.222Z,13.30
2018-09-05T04:26:09.358Z,13.30
2018-09-05T04:28:41.307Z,13.30
2018-09-05T04:31:14.118Z,13.30
2018-09-05T04:33:45.951Z,13.30
2018-09-05T04:36:18.641Z,13.30
2018-09-05T04:38:49.833Z,13.30
2018-09-05T04:41:21.073Z,13.40
2018-09-05T04:43:52.573Z,13.50
2018-09-05T04:46:24.225Z,13.50
2018-09-05T04:48:55.567Z,13.50
2018-09-05T04:51:27.481Z,13.50
2018-09-05T04:53:58.162Z,13.50
2018-09-05T04:56:30.005Z,13.60
2018-09-05T04:59:02.127Z,13.60
2018-09-05T05:01:33.015Z,13.60
2018-09-05T05:04:04.413Z,13.70
2018-09-05T05:06:35.751Z,13.70
2018-09-05T05:09:12.645Z,13.70
2018-09-05T05:11:44.325Z,13.70
2018-09-05T05:14:17.119Z,13.80
2018-09-05T05:16:48.575Z,13.80
2018-09-05T05:19:19.924Z,13.80
2018-09-05T05:21:52.368Z,13.90
2018-09-05T05:24:24.432Z,13.90
2018-09-05T05:26:57.235Z,14.00
2018-09-05T05:29:29.762Z,14.00
2018-09-05T05:32:01.957Z,14.10
2018-09-05T05:34:33.982Z,14.20
2018-09-05T05:37:06.646Z,14.30
2018-09-05T05:39:38.972Z,14.30
2018-09-05T05:42:10.029Z,14.30
2018-09-05T05:44:40.776Z,14.40
2018-09-05T05:47:13.653Z,14.40
2018-09-05T05:49:44.041Z,14.40
2018-09-05T05:52:14.655Z,14.40
2018-09-05T05:54:45.354Z,14.40
2018-09-05T05:57:17.287Z,14.50
2018-09-05T05:59:47.717Z,14.60
2018-09-05T06:02:18.249Z,14.70
2018-09-05T06:04:48.860Z,14.80
2018-09-05T06:07:20.011Z,14.90
2018-09-05T06:09:51.237Z,14.90
2018-09-05T06:12:21.868Z,15.10
2018-09-05T06:14:52.527Z,15.10
2018-09-05T06:17:23.072Z,15.30
2018-09-05T06:19:53.531Z,15.50
2018-09-05T06:22:24.257Z,15.80
2018-09-05T06:24:55.091Z,16.00
2018-09-05T06:27:26.140Z,16.40
2018-09-05T06:29:56.635Z,16.80
2018-09-05T06:32:27.011Z,17.10
2018-09-05T06:34:57.752Z,17.40
2018-09-05T06:37:28.273Z,17.60
2018-09-05T06:39:59.747Z,17.50
2018-09-05T06:42:30.432Z,18.00
2018-09-05T06:45:01.050Z,18.40
2018-09-05T06:47:31.464Z,18.60
2018-09-05T06:50:02.174Z,18.90
2018-09-05T06:52:32.723Z,19.20
2018-09-05T06:55:04.032Z,19.60
2018-09-05T06:57:34.851Z,20.00
2018-09-05T07:00:05.521Z,20.30
2018-09-05T07:02:36.270Z,20.50
2018-09-05T07:05:07.291Z,20.50
2018-09-05T07:07:38.021Z,20.50
2018-09-05T07:10:08.779Z,20.70
2018-09-05T07:12:39.623Z,20.70
2018-09-05T07:15:10.478Z,20.90
2018-09-05T07:17:43.166Z,21.00
2018-09-05T07:20:14.039Z,21.20
2018-09-05T07:22:45.112Z,21.60
2018-09-05T07:25:15.898Z,22.10
2018-09-05T07:27:47.401Z,22.20
2018-09-05T07:30:18.603Z,22.40
2018-09-05T07:32:49.574Z,22.70
2018-09-05T07:35:20.178Z,22.90
2018-09-05T07:37:52.735Z,23.10
2018-09-05T07:40:27.240Z,23.40
2018-09-05T07:42:57.699Z,23.80
2018-09-05T07:45:28.496Z,24.10
2018-09-05T07:47:59.099Z,24.50
2018-09-05T07:50:30.354Z,25.30
2018-09-05T07:53:02.227Z,25.30
2018-09-05T07:55:33.306Z,25.50
2018-09-05T07:58:03.745Z,25.80
2018-09-05T08:00:34.330Z,25.90
2018-09-05T08:03:04.977Z,26.00
2018-09-05T08:05:35.711Z,26.30
2018-09-05T08:08:06.454Z,26.50
2018-09-05T08:10:37.026Z,26.40
2018-09-05T08:13:07.589Z,26.70
2018-09-05T08:15:38.694Z,27.30
2018-09-05T08:18:09.745Z,27.80
2018-09-05T08:20:40.655Z,28.30
2018-09-05T08:23:11.259Z,28.10
2018-09-05T08:25:42.001Z,28.40
2018-09-05T08:28:13.296Z,28.70
2018-09-05T08:30:44.122Z,28.60
2018-09-05T08:33:15.353Z,28.00
2018-09-05T08:35:46.262Z,28.20
2018-09-05T08:38:16.698Z,28.70
2018-09-05T08:40:47.446Z,29.70
2018-09-05T08:43:17.941Z,30.00
2018-09-05T08:45:48.996Z,30.60
2018-09-05T08:48:20.579Z,30.90
2018-09-05T08:50:52.531Z,30.90
2018-09-05T08:53:25.923Z,31.00
2018-09-05T08:55:57.910Z,30.60
2018-09-05T08:58:29.862Z,30.70
2018-09-05T09:01:00.525Z,30.40
2018-09-05T09:03:31.210Z,30.90
2018-09-05T09:06:01.767Z,30.70
2018-09-05T09:08:32.346Z,31.20
2018-09-05T09:11:02.976Z,31.30
2018-09-05T09:13:33.607Z,31.80
2018-09-05T09:16:04.316Z,31.60
2018-09-05T09:18:35.188Z,31.60
2018-09-05T09:21:06.359Z,31.40
2018-09-05T09:23:37.283Z,31.70
2018-09-05T09:26:08.828Z,32.10
2018-09-05T09:28:39.415Z,32.10
2018-09-05T09:31:10.599Z,32.60
2018-09-05T09:33:41.111Z,32.60
2018-09-05T09:36:11.766Z,32.40
2018-09-05T09:38:42.450Z,32.00
2018-09-05T09:41:13.142Z,32.60
2018-09-05T09:43:44.832Z,32.80
2018-09-05T09:46:15.687Z,33.20
2018-09-05T09:48:46.276Z,33.60
2018-09-05T09:51:17.204Z,33.50
2018-09-05T09:53:47.754Z,33.10
2018-09-05T09:56:18.570Z,33.50
2018-09-05T09:58:49.250Z,33.90
2018-09-05T10:01:27.067Z,33.80
2018-09-05T10:04:08.134Z,33.60
2018-09-05T10:06:50.473Z,33.60
2018-09-05T10:09:26.263Z,33.80
2018-09-05T10:12:01.841Z,34.20
2018-09-05T10:14:32.629Z,34.00
2018-09-05T10:17:08.364Z,33.50
2018-09-05T10:19:38.969Z,33.70
2018-09-05T10:22:09.441Z,33.80
2018-09-05T10:24:40.004Z,33.90
2018-09-05T10:27:10.524Z,34.10
2018-09-05T10:29:41.519Z,34.30
2018-09-05T10:32:12.197Z,34.40
2018-09-05T10:34:42.951Z,34.40
2018-09-05T10:37:14.708Z,34.10
2018-09-05T10:39:45.269Z,33.60
2018-09-05T10:42:18.907Z,33.80
2018-09-05T10:44:49.636Z,33.60
2018-09-05T10:47:20.997Z,34.10
2018-09-05T10:49:51.510Z,34.00
2018-09-05T10:52:22.129Z,33.80
2018-09-05T10:54:52.625Z,33.70
2018-09-05T10:57:23.350Z,34.30
2018-09-05T10:59:53.934Z,33.90
2018-09-05T11:02:24.488Z,33.80
2018-09-05T11:04:54.955Z,33.90
2018-09-05T11:07:25.502Z,34.10
2018-09-05T11:09:56.632Z,34.20
2018-09-05T11:12:27.796Z,34.20
2018-09-05T11:14:59.213Z,34.10
2018-09-05T11:17:36.064Z,34.30
2018-09-05T11:20:09.683Z,33.80
2018-09-05T11:22:45.933Z,34.10
2018-09-05T11:25:17.810Z,34.00
2018-09-05T11:27:49.112Z,34.20
2018-09-05T11:30:20.535Z,34.60
2018-09-05T11:32:51.611Z,34.90
2018-09-05T11:35:22.287Z,35.10
2018-09-05T11:37:53.365Z,35.20
2018-09-05T11:40:24.901Z,34.50
2018-09-05T11:42:55.810Z,34.40
2018-09-05T11:45:26.805Z,34.80
2018-09-05T11:47:57.896Z,34.40
2018-09-05T11:50:30.101Z,33.90
2018-09-05T11:53:02.772Z,34.10
2018-09-05T11:55:34.363Z,34.20
2018-09-05T11:58:05.292Z,34.80
2018-09-05T12:00:36.143Z,35.10
2018-09-05T12:03:06.934Z,35.10
2018-09-05T12:05:37.545Z,35.50
2018-09-05T12:08:08.330Z,35.30
2018-09-05T12:10:39.114Z,35.90
2018-09-05T12:13:09.878Z,36.00
2018-09-05T12:15:41.206Z,35.90
2018-09-05T12:18:13.003Z,35.60
2018-09-05T12:20:43.867Z,35.90
2018-09-05T12:23:17.632Z,36.20
2018-09-05T12:25:48.229Z,36.00
2018-09-05T12:28:19.071Z,36.20
2018-09-05T12:30:49.716Z,36.10
2018-09-05T12:33:20.239Z,36.30
2018-09-05T12:35:50.803Z,36.20
2018-09-05T12:38:21.436Z,36.60
2018-09-05T12:40:51.943Z,36.70
2018-09-05T12:43:25.728Z,36.60
2018-09-05T12:45:56.799Z,36.70
2018-09-05T12:48:28.254Z,35.90
2018-09-05T12:50:59.018Z,35.80
2018-09-05T12:53:29.863Z,34.70
2018-09-05T12:56:01.587Z,35.50
2018-09-05T12:58:32.972Z,35.80
2018-09-05T13:01:05.039Z,35.90
2018-09-05T13:03:41.555Z,36.00
2018-09-05T13:06:12.066Z,36.50
2018-09-05T13:08:43.441Z,36.40
2018-09-05T13:11:15.692Z,36.10
2018-09-05T13:13:46.754Z,35.30
2018-09-05T13:16:18.519Z,34.60
2018-09-05T13:18:49.431Z,34.00
2018-09-05T13:21:20.240Z,34.70
2018-09-05T13:23:54.480Z,35.00
2018-09-05T13:26:28.005Z,34.80
2018-09-05T13:28:59.311Z,34.60
2018-09-05T13:31:30.497Z,35.00
2018-09-05T13:34:01.952Z,35.30
2018-09-05T13:36:34.779Z,35.30
2018-09-05T13:39:08.567Z,35.60
2018-09-05T13:41:39.676Z,36.00
2018-09-05T13:44:10.844Z,36.30
2018-09-05T13:46:42.161Z,36.30
2018-09-05T13:49:14.220Z,36.10
2018-09-05T13:51:48.781Z,36.30
2018-09-05T13:54:19.731Z,35.60
2018-09-05T13:56:50.761Z,35.50
2018-09-05T13:59:21.366Z,36.00
2018-09-05T14:01:52.166Z,35.10
2018-09-05T14:04:22.761Z,34.60
2018-09-05T14:06:53.529Z,34.80
2018-09-05T14:09:24.760Z,34.50
2018-09-05T14:11:55.979Z,34.90
2018-09-05T14:14:28.148Z,34.30
2018-09-05T14:16:59.649Z,33.90
2018-09-05T14:19:30.367Z,33.70
2018-09-05T14:22:01.240Z,34.00
2018-09-05T14:24:32.703Z,34.50
2018-09-05T14:27:03.336Z,34.30
2018-09-05T14:29:34.325Z,33.80
2018-09-05T14:32:06.683Z,33.30
2018-09-05T14:34:37.254Z,32.80
2018-09-05T14:37:08.448Z,32.40
2018-09-05T14:39:39.502Z,32.00
2018-09-05T14:42:10.651Z,31.80
2018-09-05T14:44:42.507Z,31.60
2018-09-05T14:47:14.116Z,32.00
2018-09-05T14:49:45.599Z,32.40
2018-09-05T14:52:16.674Z,33.00
2018-09-05T14:54:47.441Z,33.40
2018-09-05T14:57:18.792Z,33.70
2018-09-05T14:59:49.523Z,33.90
2018-09-05T15:02:21.214Z,34.20
2018-09-05T15:04:52.169Z,34.20
2018-09-05T15:07:23.075Z,34.50
2018-09-05T15:09:53.839Z,34.50
2018-09-05T15:12:24.586Z,34.60
2018-09-05T15:14:55.396Z,34.10
2018-09-05T15:17:26.097Z,34.10
2018-09-05T15:19:58.882Z,33.10
2018-09-05T15:22:29.925Z,32.80
2018-09-05T15:25:02.150Z,32.90
2018-09-05T15:27:34.267Z,32.80
2018-09-05T15:30:07.670Z,31.60
2018-09-05T15:32:39.793Z,30.90
2018-09-05T15:35:11.838Z,30.40
2018-09-05T15:37:42.527Z,30.40
2018-09-05T15:40:13.340Z,30.20
2018-09-05T15:42:44.702Z,29.90
2018-09-05T15:45:15.555Z,29.50
2018-09-05T15:47:46.632Z,29.40
2018-09-05T15:50:17.466Z,29.30
2018-09-05T15:52:48.210Z,28.80
2018-09-05T15:55:18.991Z,28.70
2018-09-05T15:57:50.308Z,28.70
2018-09-05T16:00:21.288Z,28.60
2018-09-05T16:02:52.240Z,28.60
2018-09-05T16:05:24.055Z,28.50
2018-09-05T16:07:59.037Z,28.50
2018-09-05T16:10:32.558Z,28.50
2018-09-05T16:13:03.338Z,28.50
2018-09-05T16:15:34.936Z,28.50
2018-09-05T16:18:05.623Z,28.40
2018-09-05T16:20:37.592Z,28.40
2018-09-05T16:23:09.040Z,28.40
2018-09-05T16:25:40.525Z,28.30
2018-09-05T16:28:13.592Z,28.30
2018-09-05T16:30:46.794Z,28.40
2018-09-05T16:33:20.256Z,28.30
2018-09-05T16:35:53.360Z,28.20
2018-09-05T16:38:24.383Z,28.10
2018-09-05T16:40:55.246Z,27.90
2018-09-05T16:43:26.298Z,27.80
2018-09-05T16:45:57.208Z,27.30
2018-09-05T16:48:29.995Z,27.00
2018-09-05T16:51:04.922Z,27.00
2018-09-05T16:53:37.717Z,26.90
2018-09-05T16:56:09.763Z,27.00
2018-09-05T16:58:40.916Z,27.00
2018-09-05T17:01:12.152Z,27.00
2018-09-05T17:03:45.141Z,27.00
2018-09-05T17:06:18.001Z,26.90
2018-09-05T17:08:50.230Z,26.90
2018-09-05T17:11:21.030Z,26.80
2018-09-05T17:13:52.428Z,26.80
2018-09-05T17:16:24.226Z,26.70
2018-09-05T17:18:55.429Z,26.70
2018-09-05T17:21:26.785Z,26.60
2018-09-05T17:23:58.399Z,26.40
2018-09-05T17:26:30.187Z,26.10
2018-09-05T17:29:01.021Z,26.00
2018-09-05T17:31:32.551Z,25.90
2018-09-05T17:34:04.697Z,25.90
2018-09-05T17:36:36.710Z,25.60
2018-09-05T17:39:11.422Z,25.50
2018-09-05T17:41:42.814Z,25.30
2018-09-05T17:44:14.229Z,25.10
2018-09-05T17:46:45.624Z,24.90
2018-09-05T17:49:19.382Z,24.70
2018-09-05T17:51:51.551Z,24.60
2018-09-05T17:54:22.649Z,24.50
2018-09-05T17:56:55.116Z,24.50
2018-09-05T17:59:26.882Z,24.60
2018-09-05T18:01:58.610Z,24.60
2018-09-05T18:04:30.359Z,24.50
2018-09-05T18:07:02.951Z,24.20
2018-09-05T18:09:35.671Z,24.10
2018-09-05T18:12:07.835Z,24.00
2018-09-05T18:14:42.437Z,23.80
2018-09-05T18:17:15.620Z,23.60
2018-09-05T18:19:47.304Z,23.40
2018-09-05T18:22:19.315Z,23.40
2018-09-05T18:24:51.085Z,23.40
2018-09-05T18:27:22.982Z,23.20
2018-09-05T18:29:54.663Z,22.90
2018-09-05T18:32:26.533Z,22.70
2018-09-05T18:34:58.778Z,22.50
2018-09-05T18:37:31.247Z,22.50
2018-09-05T18:40:03.593Z,22.50
2018-09-05T18:42:35.619Z,22.40
2018-09-05T18:45:08.606Z,22.30
2018-09-05T18:47:40.847Z,22.30
2018-09-05T18:50:12.994Z,22.20
2018-09-05T18:52:45.698Z,22.20
2018-09-05T18:55:18.754Z,22.20
2018-09-05T18:57:50.789Z,22.10
2018-09-05T19:00:23.608Z,21.90
2018-09-05T19:02:55.784Z,21.90
2018-09-05T19:05:29.271Z,21.70
2018-09-05T19:08:01.972Z,21.70
2018-09-05T19:10:37.694Z,21.70
2018-09-05T19:13:13.434Z,21.60
2018-09-05T19:15:51.437Z,21.40
2018-09-05T19:18:25.301Z,21.30
2018-09-05T19:20:57.459Z,21.30
2018-09-05T19:23:29.450Z,21.30
2018-09-05T19:26:01.886Z,21.30
2018-09-05T19:28:33.990Z,21.20
2018-09-05T19:31:06.022Z,21.20
2018-09-05T19:33:39.525Z,21.10
2018-09-05T19:36:12.849Z,21.10
2018-09-05T19:38:44.529Z,21.00
2018-09-05T19:41:16.953Z,20.90
2018-09-05T19:43:48.955Z,20.80
2018-09-05T19:46:22.474Z,20.80
2018-09-05T19:48:54.836Z,20.70
2018-09-05T19:51:26.741Z,20.80
2018-09-05T19:53:59.826Z,20.50
2018-09-05T19:56:34.528Z,20.40
2018-09-05T19:59:08.176Z,20.30
2018-09-05T20:01:45.105Z,20.30
2018-09-05T20:04:19.888Z,20.30
2018-09-05T20:06:57.765Z,20.30
2018-09-05T20:09:33.428Z,20.20
2018-09-05T20:12:07.993Z,20.20
2018-09-05T20:14:44.473Z,20.10
2018-09-05T20:17:17.514Z,20.10
2018-09-05T20:19:55.445Z,20.10
2018-09-05T20:22:33.568Z,20.00
2018-09-05T20:25:22.063Z,19.90
2018-09-05T20:27:55.112Z,19.90
2018-09-05T20:30:27.180Z,19.90
2018-09-05T20:32:59.117Z,19.90
2018-09-05T20:35:31.527Z,19.90
2018-09-05T20:38:03.456Z,19.90
2018-09-05T20:40:35.658Z,19.80
2018-09-05T20:43:07.372Z,19.90
2018-09-05T20:45:39.049Z,19.90
2018-09-05T20:48:11.700Z,19.90
2018-09-05T20:50:43.705Z,19.80
2018-09-05T20:53:16.467Z,19.80
2018-09-05T20:55:48.478Z,19.80
2018-09-05T20:58:21.195Z,19.70
2018-09-05T21:00:53.448Z,19.60
2018-09-05T21:03:26.518Z,19.60
2018-09-05T21:05:59.077Z,19.60
2018-09-05T21:08:30.970Z,19.50
2018-09-05T21:11:02.681Z,19.40
2018-09-05T21:13:35.196Z,19.50
2018-09-05T21:16:08.376Z,19.40
2018-09-05T21:18:40.391Z,19.40
2018-09-05T21:21:12.693Z,19.30
2018-09-05T21:23:44.036Z,19.30
2018-09-05T21:26:15.613Z,19.30
2018-09-05T21:28:46.494Z,19.20
2018-09-05T21:31:17.494Z,19.20
2018-09-05T21:33:48.568Z,19.10
2018-09-05T21:36:19.604Z,19.10
2018-09-05T21:38:50.312Z,19.10
2018-09-05T21:41:20.910Z,19.00
2018-09-05T21:43:51.625Z,18.80
2018-09-05T21:46:22.614Z,18.70
2018-09-05T21:48:53.446Z,18.60
2018-09-05T21:51:24.055Z,18.60
2018-09-05T21:53:54.600Z,18.60
2018-09-05T21:56:25.117Z,18.60
2018-09-05T21:58:55.673Z,18.60
2018-09-05T22:01:26.232Z,18.60
2018-09-05T22:03:56.946Z,18.60
2018-09-05T22:06:27.536Z,18.50
2018-09-05T22:08:58.343Z,18.60
2018-09-05T22:11:28.834Z,18.60
2018-09-05T22:13:59.873Z,18.40
2018-09-05T22:16:30.927Z,18.40
2018-09-05T22:19:02.156Z,18.40
2018-09-05T22:21:32.681Z,18.40
2018-09-05T22:24:03.550Z,18.30
2018-09-05T22:26:34.052Z,18.30
2018-09-05T22:29:04.659Z,18.40
2018-09-05T22:31:35.372Z,18.40
2018-09-05T22:34:06.228Z,18.30
2018-09-05T22:36:36.726Z,18.20
2018-09-05T22:39:09.458Z,18.20
2018-09-05T22:41:40.003Z,18.10
2018-09-05T22:44:27.048Z,18.10
2018-09-05T22:47:14.827Z,18.10
2018-09-05T22:50:07.709Z,17.90
2018-09-05T22:56:00.521Z,17.90
2018-09-05T23:00:54.389Z,17.80
2018-09-05T23:04:49.061Z,17.80
2018-09-05T23:07:35.095Z,17.70
2018-09-05T23:10:21.872Z,17.70
2018-09-05T23:13:08.714Z,17.60
2018-09-05T23:15:55.493Z,17.50
2018-09-05T23:18:47.975Z,17.50
2018-09-05T23:21:21.312Z,17.40
2018-09-05T23:24:11.268Z,17.40
2018-09-05T23:26:42.380Z,17.40
2018-09-05T23:29:12.841Z,17.40
2018-09-05T23:31:43.390Z,17.40
2018-09-05T23:34:13.805Z,17.40
2018-09-05T23:36:44.313Z,17.40
2018-09-05T23:39:14.665Z,17.40
2018-09-05T23:41:45.170Z,17.40
2018-09-05T23:44:15.695Z,17.30
2018-09-05T23:46:46.141Z,17.20
2018-09-05T23:49:16.517Z,17.20
2018-09-05T23:51:47.021Z,17.20
2018-09-05T23:54:17.400Z,17.20
2018-09-05T23:56:47.928Z,17.20
2018-09-05T23:59:19.050Z,17.10
